Time;durP1;ratioP1;P1;durP2;ratioP2;P2;SDS_P1;SDS_P2;PMS_P1;PMS_P2;Temp;Humidity;BMP_temperature;BMP_pressure;BME280_temperature;BME280_humidity;BME280_pressure;Samples;Min_cycle;Max_cycle;Signal;HPM_P1;HPM_P2
2022/01/29 00:01:28;;;;;;;9.57;5.18;;;;;;;;;;4945694;28;20138;-69
2022/01/29 00:03:55;;;;;;;11.85;6.10;;;;;;;;;;4945993;29;20100;-69
2022/01/29 00:06:22;;;;;;;8.15;5.38;;;;;;;;;;4946375;28;20130;-68
2022/01/29 00:08:51;;;;;;;11.00;4.63;;;;;;;;;;4947303;29;20059;-69
2022/01/29 00:11:18;;;;;;;10.02;5.25;;;;;;;;;;4946030;29;20536;-69
2022/01/29 00:13:46;;;;;;;8.93;4.82;;;;;;;;;;4945896;28;20039;-69
2022/01/29 00:16:16;;;;;;;9.15;5.18;;;;;;;;;;4945491;29;20051;-69
2022/01/29 00:18:43;;;;;;;10.82;5.40;;;;;;;;;;4944955;28;20043;-69
2022/01/29 00:21:10;;;;;;;8.32;5.18;;;;;;;;;;4947402;28;20071;-71
2022/01/29 00:23:38;;;;;;;8.98;4.75;;;;;;;;;;4939503;28;20094;-70
2022/01/29 00:26:05;;;;;;;10.73;5.60;;;;;;;;;;4937348;29;20099;-70
2022/01/29 00:28:35;;;;;;;9.02;4.72;;;;;;;;;;4936845;29;20095;-69
2022/01/29 00:31:03;;;;;;;11.23;5.28;;;;;;;;;;4936957;29;20051;-69
2022/01/29 00:33:32;;;;;;;9.23;5.68;;;;;;;;;;4937393;29;20542;-70
2022/01/29 00:35:59;;;;;;;8.93;5.07;;;;;;;;;;4937012;29;20493;-69
2022/01/29 00:38:26;;;;;;;9.85;5.18;;;;;;;;;;4936315;29;20052;-70
2022/01/29 00:40:53;;;;;;;11.13;5.78;;;;;;;;;;4937128;29;20106;-69
2022/01/29 00:43:20;;;;;;;11.38;5.70;;;;;;;;;;4936801;29;20417;-69
2022/01/29 00:45:47;;;;;;;11.30;5.45;;;;;;;;;;4937277;29;20576;-70
2022/01/29 00:48:14;;;;;;;9.68;5.25;;;;;;;;;;4936496;29;20055;-70
2022/01/29 00:50:43;;;;;;;13.57;5.80;;;;;;;;;;4937036;29;20055;-70
2022/01/29 00:53:10;;;;;;;9.63;4.70;;;;;;;;;;4936536;29;20052;-69
2022/01/29 00:55:37;;;;;;;10.15;4.93;;;;;;;;;;4936480;29;20067;-70
2022/01/29 00:58:04;;;;;;;11.73;5.20;;;;;;;;;;4936335;29;20450;-70
2022/01/29 01:00:31;;;;;;;10.60;5.38;;;;;;;;;;4936787;29;20477;-70
2022/01/29 01:02:58;;;;;;;11.10;5.88;;;;;;;;;;4936408;29;20052;-70
2022/01/29 01:05:25;;;;;;;9.90;5.03;;;;;;;;;;4936653;29;20515;-69
2022/01/29 01:07:54;;;;;;;8.93;4.50;;;;;;;;;;4936119;29;20068;-74
2022/01/29 01:10:21;;;;;;;9.65;5.45;;;;;;;;;;4936371;29;20056;-69
2022/01/29 01:12:48;;;;;;;11.98;5.20;;;;;;;;;;4936201;29;20055;-70
2022/01/29 01:15:15;;;;;;;8.68;5.35;;;;;;;;;;4936327;29;20083;-69
2022/01/29 01:17:45;;;;;;;9.77;4.90;;;;;;;;;;4935805;29;20095;-70
2022/01/29 01:20:13;;;;;;;9.50;4.88;;;;;;;;;;4936575;29;20067;-69
2022/01/29 01:22:40;;;;;;;10.98;5.22;;;;;;;;;;4936085;29;20056;-70
2022/01/29 01:25:10;;;;;;;10.18;5.30;;;;;;;;;;4936213;29;20090;-70
2022/01/29 01:27:37;;;;;;;11.05;5.15;;;;;;;;;;4935816;29;20058;-70
2022/01/29 01:30:05;;;;;;;11.00;6.38;;;;;;;;;;4936152;29;20489;-70
2022/01/29 01:32:32;;;;;;;11.82;5.40;;;;;;;;;;4935037;29;20150;-70
2022/01/29 01:35:09;;;;;;;9.95;5.68;;;;;;;;;;4937714;29;20055;-70
2022/01/29 01:37:42;;;;;;;10.80;5.43;;;;;;;;;;4951031;29;20062;-71
2022/01/29 01:40:12;;;;;;;10.25;5.25;;;;;;;;;;4940239;29;20055;-70
2022/01/29 01:42:39;;;;;;;8.48;5.00;;;;;;;;;;4946697;28;20505;-70
2022/01/29 01:45:07;;;;;;;9.70;5.55;;;;;;;;;;4935674;29;20047;-71
2022/01/29 01:47:35;;;;;;;13.23;5.72;;;;;;;;;;4935282;29;20134;-71
2022/01/29 01:50:02;;;;;;;10.00;5.25;;;;;;;;;;4935424;29;20143;-70
2022/01/29 01:52:29;;;;;;;10.63;5.40;;;;;;;;;;4935735;29;20421;-70
2022/01/29 01:54:56;;;;;;;10.27;5.10;;;;;;;;;;4935466;29;20055;-69
2022/01/29 01:57:24;;;;;;;10.32;5.70;;;;;;;;;;4935285;29;20058;-70
2022/01/29 01:59:51;;;;;;;10.35;6.18;;;;;;;;;;4935417;29;20130;-70
2022/01/29 02:02:21;;;;;;;11.43;5.68;;;;;;;;;;4935303;29;20054;-70
2022/01/29 02:04:48;;;;;;;10.20;5.68;;;;;;;;;;4935374;29;20055;-70
2022/01/29 02:07:15;;;;;;;10.23;5.18;;;;;;;;;;4935138;29;20055;-69
2022/01/29 02:09:42;;;;;;;9.38;5.40;;;;;;;;;;4935209;29;20051;-69
2022/01/29 02:12:11;;;;;;;10.85;5.53;;;;;;;;;;4935597;29;20079;-71
2022/01/29 02:14:40;;;;;;;10.45;5.20;;;;;;;;;;4935251;28;20139;-70
2022/01/29 02:17:08;;;;;;;10.93;5.78;;;;;;;;;;4934750;29;20055;-70
2022/01/29 02:19:36;;;;;;;9.65;5.43;;;;;;;;;;4935521;29;20062;-70
2022/01/29 02:22:05;;;;;;;9.95;5.07;;;;;;;;;;4935137;29;20059;-70
2022/01/29 02:24:32;;;;;;;10.38;5.20;;;;;;;;;;4934938;29;20424;-71
2022/01/29 02:26:59;;;;;;;9.73;5.50;;;;;;;;;;4934931;29;20386;-70
2022/01/29 02:29:27;;;;;;;9.88;5.32;;;;;;;;;;4935156;29;20052;-70
2022/01/29 02:31:57;;;;;;;10.18;5.30;;;;;;;;;;4935171;29;20489;-70
2022/01/29 02:34:25;;;;;;;12.05;5.45;;;;;;;;;;4934986;29;20051;-69
2022/01/29 02:36:53;;;;;;;10.73;5.03;;;;;;;;;;4934646;29;20323;-70
2022/01/29 02:39:22;;;;;;;10.32;6.05;;;;;;;;;;4934615;29;20142;-70
2022/01/29 02:41:49;;;;;;;8.80;5.22;;;;;;;;;;4934809;29;20063;-70
2022/01/29 02:44:20;;;;;;;10.10;4.63;;;;;;;;;;4934582;29;20498;-69
2022/01/29 02:46:52;;;;;;;9.52;5.10;;;;;;;;;;4934919;29;20413;-70
2022/01/29 02:49:22;;;;;;;9.95;4.60;;;;;;;;;;4981996;23;20105;-64
2022/01/29 02:51:50;;;;;;;9.20;5.05;;;;;;;;;;4992571;28;20462;-64
2022/01/29 02:54:17;;;;;;;8.30;5.03;;;;;;;;;;4992525;28;20048;-63
2022/01/29 02:56:46;;;;;;;8.98;5.20;;;;;;;;;;4992306;28;20061;-64
2022/01/29 02:59:14;;;;;;;10.23;4.97;;;;;;;;;;4992379;28;20054;-65
2022/01/29 03:01:41;;;;;;;10.32;5.25;;;;;;;;;;4992676;28;20042;-64
2022/01/29 03:04:08;;;;;;;9.30;5.30;;;;;;;;;;4992534;28;20049;-64
2022/01/29 03:06:35;;;;;;;9.00;4.57;;;;;;;;;;4992588;28;20072;-64
2022/01/29 03:09:03;;;;;;;7.85;4.88;;;;;;;;;;4992299;28;20057;-64
2022/01/29 03:11:30;;;;;;;9.13;4.85;;;;;;;;;;4992300;28;20078;-64
2022/01/29 03:13:59;;;;;;;10.55;5.38;;;;;;;;;;4992366;28;20068;-62
2022/01/29 03:16:26;;;;;;;8.60;4.90;;;;;;;;;;4992111;28;20046;-63
2022/01/29 03:18:53;;;;;;;9.60;5.10;;;;;;;;;;4992164;28;20392;-63
2022/01/29 03:21:20;;;;;;;8.73;5.07;;;;;;;;;;4992341;28;20260;-62
2022/01/29 03:23:47;;;;;;;8.57;5.07;;;;;;;;;;4992223;28;20050;-64
2022/01/29 03:26:13;;;;;;;10.13;4.85;;;;;;;;;;4992235;28;20047;-63
2022/01/29 03:28:41;;;;;;;10.82;5.43;;;;;;;;;;4992016;28;20046;-63
2022/01/29 03:31:09;;;;;;;11.02;5.30;;;;;;;;;;4992216;28;20515;-64
2022/01/29 03:33:36;;;;;;;10.77;5.60;;;;;;;;;;4992202;28;20046;-64
2022/01/29 03:36:03;;;;;;;10.13;5.00;;;;;;;;;;4992092;28;20093;-64
2022/01/29 03:38:30;;;;;;;10.55;5.95;;;;;;;;;;4992140;28;20054;-63
2022/01/29 03:40:59;;;;;;;9.68;4.60;;;;;;;;;;4992369;28;20105;-64
2022/01/29 03:43:30;;;;;;;9.85;5.38;;;;;;;;;;4992019;28;20050;-64
2022/01/29 03:45:57;;;;;;;10.80;5.22;;;;;;;;;;4992316;28;20073;-64
2022/01/29 03:48:26;;;;;;;9.35;5.28;;;;;;;;;;4992085;28;20085;-64
2022/01/29 03:50:53;;;;;;;9.13;5.10;;;;;;;;;;4991992;28;20065;-64
2022/01/29 03:53:19;;;;;;;12.80;5.53;;;;;;;;;;4992293;28;20054;-64
2022/01/29 03:55:47;;;;;;;9.23;4.32;;;;;;;;;;4992032;28;20447;-63
2022/01/29 03:58:14;;;;;;;10.25;4.90;;;;;;;;;;4995229;28;20053;-63
2022/01/29 04:00:41;;;;;;;11.63;4.88;;;;;;;;;;4995299;28;20046;-63
2022/01/29 04:03:09;;;;;;;10.48;4.80;;;;;;;;;;4995519;28;20049;-63
2022/01/29 04:05:37;;;;;;;7.05;4.72;;;;;;;;;;4995200;28;20415;-63
2022/01/29 04:08:12;;;;;;;9.20;4.93;;;;;;;;;;4995002;28;20046;-64
2022/01/29 04:10:39;;;;;;;9.68;5.30;;;;;;;;;;4995188;28;20062;-63
2022/01/29 04:13:09;;;;;;;9.35;4.47;;;;;;;;;;4995327;28;20052;-64
2022/01/29 04:15:36;;;;;;;11.30;5.07;;;;;;;;;;4994898;28;20551;-65
2022/01/29 04:18:03;;;;;;;8.02;4.70;;;;;;;;;;4994618;28;20054;-65
2022/01/29 04:20:30;;;;;;;8.60;4.63;;;;;;;;;;4995020;28;20050;-64
2022/01/29 04:22:59;;;;;;;10.70;5.03;;;;;;;;;;4995009;28;20046;-64
2022/01/29 04:25:26;;;;;;;7.18;4.38;;;;;;;;;;4994998;28;20447;-64
2022/01/29 04:27:53;;;;;;;11.27;4.80;;;;;;;;;;4994438;28;20133;-64
2022/01/29 04:30:28;;;;;;;10.50;5.03;;;;;;;;;;4994772;28;20050;-64
2022/01/29 04:32:59;;;;;;;8.52;4.97;;;;;;;;;;4995759;28;20524;-64
2022/01/29 04:35:27;;;;;;;13.13;5.00;;;;;;;;;;4995829;28;20084;-64
2022/01/29 04:37:54;;;;;;;11.38;4.30;;;;;;;;;;4994759;28;20125;-64
2022/01/29 04:40:23;;;;;;;9.15;4.68;;;;;;;;;;4994674;28;20048;-63
2022/01/29 04:42:50;;;;;;;10.13;5.20;;;;;;;;;;4994455;28;20058;-65
2022/01/29 04:45:17;;;;;;;7.45;4.20;;;;;;;;;;4994637;28;20152;-64
2022/01/29 04:47:44;;;;;;;8.73;4.68;;;;;;;;;;4994759;28;20064;-63
2022/01/29 04:50:11;;;;;;;9.40;4.97;;;;;;;;;;4994439;28;20056;-63
2022/01/29 04:52:39;;;;;;;9.50;4.20;;;;;;;;;;4994496;28;20446;-62
2022/01/29 04:55:07;;;;;;;8.98;4.75;;;;;;;;;;4994426;28;20053;-63
2022/01/29 04:57:37;;;;;;;9.68;5.15;;;;;;;;;;4993831;28;20403;-63
2022/01/29 05:00:07;;;;;;;10.82;5.20;;;;;;;;;;4994561;28;20054;-63
2022/01/29 05:02:35;;;;;;;10.53;4.93;;;;;;;;;;4994375;28;20137;-63
2022/01/29 05:05:02;;;;;;;8.55;5.00;;;;;;;;;;4994316;28;20342;-63
2022/01/29 05:07:29;;;;;;;8.82;4.35;;;;;;;;;;4993768;28;20137;-64
2022/01/29 05:09:56;;;;;;;10.05;4.75;;;;;;;;;;4994204;28;20452;-63
2022/01/29 05:12:29;;;;;;;11.23;5.07;;;;;;;;;;4994154;28;20125;-63
2022/01/29 05:15:10;;;;;;;7.97;4.72;;;;;;;;;;4994306;28;20058;-64
2022/01/29 05:28:34;;;;;;;9.23;4.65;;;;;;;;;;4993513;28;20057;-64
2022/01/29 05:31:03;;;;;;;7.68;4.95;;;;;;;;;;4993766;28;20141;-64
2022/01/29 05:33:30;;;;;;;9.18;4.80;;;;;;;;;;4993632;28;20503;-63
2022/01/29 05:35:57;;;;;;;9.27;4.78;;;;;;;;;;4993808;28;20418;-64
2022/01/29 05:38:26;;;;;;;8.45;4.32;;;;;;;;;;4993435;28;20411;-64
2022/01/29 05:40:53;;;;;;;8.85;4.90;;;;;;;;;;4994049;28;20508;-63
2022/01/29 05:43:20;;;;;;;10.63;4.82;;;;;;;;;;4993647;28;20046;-65
2022/01/29 05:45:47;;;;;;;9.45;5.10;;;;;;;;;;4993514;28;20165;-64
2022/01/29 05:48:15;;;;;;;8.75;5.18;;;;;;;;;;4993048;28;20653;-64
2022/01/29 05:50:42;;;;;;;10.77;5.20;;;;;;;;;;4993842;28;20093;-63
2022/01/29 05:53:09;;;;;;;10.10;5.38;;;;;;;;;;4993690;28;20053;-64
2022/01/29 05:55:36;;;;;;;10.05;5.13;;;;;;;;;;4993812;28;20521;-63
2022/01/29 05:58:03;;;;;;;10.20;5.07;;;;;;;;;;4993131;28;20054;-63
2022/01/29 06:00:30;;;;;;;9.18;4.85;;;;;;;;;;4993711;28;20058;-63
2022/01/29 06:03:02;;;;;;;9.63;4.80;;;;;;;;;;4993417;28;20106;-64
2022/01/29 06:05:30;;;;;;;9.25;4.93;;;;;;;;;;4993223;28;20129;-62
2022/01/29 06:07:57;;;;;;;10.73;4.60;;;;;;;;;;4992808;28;20042;-63
2022/01/29 06:10:25;;;;;;;10.45;4.80;;;;;;;;;;4993026;28;20130;-63
2022/01/29 06:12:59;;;;;;;10.40;4.88;;;;;;;;;;4992926;28;20056;-64
2022/01/29 06:15:27;;;;;;;10.45;5.03;;;;;;;;;;4993325;28;20562;-63
2022/01/29 06:17:55;;;;;;;9.27;4.50;;;;;;;;;;4992687;28;20054;-64
2022/01/29 06:20:22;;;;;;;8.05;4.78;;;;;;;;;;4992123;28;20132;-63
2022/01/29 06:22:50;;;;;;;9.20;4.50;;;;;;;;;;4992741;28;20050;-63
2022/01/29 06:25:17;;;;;;;8.10;4.90;;;;;;;;;;4992770;28;20137;-64
2022/01/29 06:27:44;;;;;;;9.45;4.90;;;;;;;;;;4992506;28;20050;-63
2022/01/29 06:30:12;;;;;;;7.38;4.30;;;;;;;;;;4992995;28;20043;-64
2022/01/29 06:32:39;;;;;;;8.65;4.55;;;;;;;;;;4993542;28;20053;-64
2022/01/29 06:35:06;;;;;;;8.05;4.90;;;;;;;;;;4993168;28;20050;-64
2022/01/29 06:37:33;;;;;;;8.60;4.70;;;;;;;;;;4992970;28;20053;-63
2022/01/29 06:40:02;;;;;;;7.07;4.18;;;;;;;;;;4993200;28;20100;-64
2022/01/29 06:42:29;;;;;;;13.68;5.22;;;;;;;;;;4993115;28;20400;-64
2022/01/29 06:44:56;;;;;;;7.93;4.30;;;;;;;;;;4992966;28;20133;-64
2022/01/29 06:47:23;;;;;;;8.18;4.50;;;;;;;;;;4992589;28;20430;-64
2022/01/29 06:49:50;;;;;;;6.45;3.85;;;;;;;;;;4992907;28;20056;-64
2022/01/29 06:52:17;;;;;;;7.97;3.85;;;;;;;;;;4993083;28;20055;-62
2022/01/29 06:54:45;;;;;;;7.57;4.55;;;;;;;;;;4993058;28;20081;-64
2022/01/29 06:57:13;;;;;;;8.80;4.50;;;;;;;;;;4992882;28;20064;-64
2022/01/29 06:59:40;;;;;;;7.97;3.90;;;;;;;;;;4992992;28;20057;-63
2022/01/29 07:02:08;;;;;;;10.35;4.57;;;;;;;;;;4993066;28;20047;-63
2022/01/29 07:04:35;;;;;;;8.65;4.65;;;;;;;;;;4992976;28;20061;-65
2022/01/29 07:07:02;;;;;;;7.53;4.18;;;;;;;;;;4992789;28;20054;-64
2022/01/29 07:09:29;;;;;;;7.75;4.50;;;;;;;;;;4992745;28;20447;-64
2022/01/29 07:11:59;;;;;;;8.98;4.50;;;;;;;;;;4993077;28;20133;-64
2022/01/29 07:14:29;;;;;;;9.02;4.68;;;;;;;;;;4993048;28;20097;-64
2022/01/29 07:16:56;;;;;;;8.40;4.13;;;;;;;;;;4989679;28;20046;-63
2022/01/29 07:19:23;;;;;;;7.25;4.30;;;;;;;;;;4983624;28;20086;-63
2022/01/29 07:21:50;;;;;;;9.00;4.18;;;;;;;;;;4982554;28;20154;-64
2022/01/29 07:24:17;;;;;;;8.65;4.68;;;;;;;;;;4982311;28;20137;-64
2022/01/29 07:26:44;;;;;;;8.65;4.38;;;;;;;;;;4984233;28;20415;-64
2022/01/29 07:29:11;;;;;;;8.55;4.30;;;;;;;;;;4984109;28;20059;-64
2022/01/29 07:31:40;;;;;;;8.50;4.10;;;;;;;;;;4984609;28;20070;-63
2022/01/29 07:34:07;;;;;;;7.95;4.13;;;;;;;;;;4985672;28;20051;-64
2022/01/29 07:36:34;;;;;;;9.15;4.57;;;;;;;;;;4985800;28;20046;-64
2022/01/29 07:39:01;;;;;;;7.68;4.18;;;;;;;;;;4987002;28;20476;-63
2022/01/29 07:41:28;;;;;;;7.43;4.35;;;;;;;;;;4985409;28;20050;-64
2022/01/29 07:43:55;;;;;;;7.03;4.20;;;;;;;;;;4987896;28;20407;-65
2022/01/29 07:46:22;;;;;;;6.90;4.18;;;;;;;;;;4987553;28;20056;-64
2022/01/29 07:48:50;;;;;;;7.43;3.70;;;;;;;;;;4985744;28;20053;-64
2022/01/29 07:51:17;;;;;;;7.15;3.75;;;;;;;;;;4986343;28;20047;-64
2022/01/29 07:53:44;;;;;;;6.28;3.72;;;;;;;;;;4984812;28;20479;-65
2022/01/29 07:56:11;;;;;;;7.43;3.65;;;;;;;;;;4985674;28;20046;-64
2022/01/29 07:58:38;;;;;;;8.00;4.63;;;;;;;;;;4986093;28;20049;-64
2022/01/29 08:01:05;;;;;;;8.57;3.63;;;;;;;;;;4984677;28;20133;-63
2022/01/29 08:03:32;;;;;;;9.02;4.20;;;;;;;;;;4985587;28;20125;-65
2022/01/29 08:06:01;;;;;;;6.03;3.28;;;;;;;;;;4985354;28;20112;-65
2022/01/29 08:08:28;;;;;;;5.57;3.42;;;;;;;;;;4984539;28;20153;-64
2022/01/29 08:10:55;;;;;;;6.00;3.28;;;;;;;;;;4985328;28;20049;-63
2022/01/29 08:13:22;;;;;;;8.40;3.92;;;;;;;;;;4986157;28;20066;-64
2022/01/29 08:15:49;;;;;;;6.97;3.45;;;;;;;;;;4985259;28;20038;-64
2022/01/29 08:18:16;;;;;;;6.95;3.55;;;;;;;;;;4984939;28;20442;-63
2022/01/29 08:20:43;;;;;;;7.22;3.67;;;;;;;;;;4986225;28;20491;-63
2022/01/29 08:23:12;;;;;;;6.00;3.10;;;;;;;;;;4983967;28;20051;-64
2022/01/29 08:25:39;;;;;;;6.38;3.38;;;;;;;;;;4985976;28;20047;-64
2022/01/29 08:28:06;;;;;;;7.43;4.43;;;;;;;;;;4984308;28;20412;-65
2022/01/29 08:30:34;;;;;;;7.20;3.83;;;;;;;;;;4984974;28;20050;-65
2022/01/29 08:33:01;;;;;;;6.75;3.25;;;;;;;;;;4986366;28;20073;-64
2022/01/29 08:35:28;;;;;;;7.25;3.58;;;;;;;;;;4984757;28;20138;-65
2022/01/29 08:37:56;;;;;;;7.35;3.70;;;;;;;;;;4984278;28;20061;-65
2022/01/29 08:40:25;;;;;;;8.20;3.30;;;;;;;;;;4985955;28;20046;-62
2022/01/29 08:42:52;;;;;;;7.72;3.40;;;;;;;;;;4984398;28;20455;-65
2022/01/29 08:45:19;;;;;;;5.80;3.47;;;;;;;;;;4984078;28;20057;-63
2022/01/29 08:47:46;;;;;;;7.57;3.30;;;;;;;;;;4984092;28;20393;-62
2022/01/29 08:50:14;;;;;;;8.73;3.50;;;;;;;;;;5001974;23;20606;-69
2022/01/29 08:52:41;;;;;;;5.75;2.97;;;;;;;;;;5006039;28;20093;-68
2022/01/29 08:55:10;;;;;;;6.30;3.20;;;;;;;;;;5003448;28;20051;-67
2022/01/29 08:57:39;;;;;;;6.93;3.85;;;;;;;;;;5003251;28;20057;-68
2022/01/29 09:00:08;;;;;;;6.57;3.83;;;;;;;;;;5003299;28;20108;-67
2022/01/29 09:02:35;;;;;;;7.82;3.88;;;;;;;;;;4995159;28;20052;-69
2022/01/29 09:05:03;;;;;;;7.20;3.67;;;;;;;;;;5003755;28;20056;-69
2022/01/29 09:07:30;;;;;;;9.63;3.90;;;;;;;;;;5001579;28;20053;-71
2022/01/29 09:09:57;;;;;;;6.85;3.55;;;;;;;;;;5004113;28;20048;-70
2022/01/29 09:12:24;;;;;;;6.53;3.30;;;;;;;;;;5001701;28;20046;-71
2022/01/29 09:14:53;;;;;;;6.30;3.35;;;;;;;;;;5004521;28;20050;-70
2022/01/29 09:17:20;;;;;;;7.00;3.63;;;;;;;;;;5005925;28;20056;-71
2022/01/29 09:19:48;;;;;;;7.28;3.83;;;;;;;;;;5003163;28;20403;-71
2022/01/29 09:22:15;;;;;;;6.78;3.05;;;;;;;;;;5002445;28;20074;-70
2022/01/29 09:24:42;;;;;;;7.25;3.60;;;;;;;;;;5006228;28;20468;-70
2022/01/29 09:27:09;;;;;;;6.80;3.17;;;;;;;;;;5001394;28;20321;-70
2022/01/29 09:29:38;;;;;;;8.85;3.50;;;;;;;;;;5001963;28;20057;-70
2022/01/29 09:32:07;;;;;;;6.88;3.47;;;;;;;;;;5001585;28;20411;-70
2022/01/29 09:34:34;;;;;;;6.45;3.42;;;;;;;;;;4993861;28;20133;-70
2022/01/29 09:37:01;;;;;;;7.07;3.40;;;;;;;;;;4993422;28;20137;-70
2022/01/29 09:39:28;;;;;;;5.72;3.35;;;;;;;;;;4993656;28;20518;-70
2022/01/29 09:41:56;;;;;;;7.38;3.67;;;;;;;;;;4993772;28;20050;-70
2022/01/29 09:44:23;;;;;;;7.30;3.10;;;;;;;;;;4993989;28;20118;-70
2022/01/29 09:46:51;;;;;;;6.05;2.65;;;;;;;;;;4993241;28;20057;-70
2022/01/29 09:49:21;;;;;;;4.90;2.88;;;;;;;;;;4993563;28;20550;-70
2022/01/29 09:51:48;;;;;;;5.72;2.40;;;;;;;;;;4993255;28;20046;-70
2022/01/29 09:54:15;;;;;;;7.57;3.45;;;;;;;;;;4992401;28;20053;-70
2022/01/29 09:56:42;;;;;;;5.93;2.70;;;;;;;;;;4993028;28;20137;-70
2022/01/29 09:59:09;;;;;;;5.82;2.30;;;;;;;;;;4993145;28;20052;-70
2022/01/29 10:01:36;;;;;;;5.18;2.03;;;;;;;;;;4993215;28;20415;-69
2022/01/29 10:04:04;;;;;;;5.00;1.90;;;;;;;;;;4993196;28;20046;-70
2022/01/29 10:06:33;;;;;;;4.85;1.85;;;;;;;;;;4993142;28;20047;-70
2022/01/29 10:09:04;;;;;;;5.45;2.05;;;;;;;;;;4992641;28;20050;-70
2022/01/29 10:11:31;;;;;;;5.05;2.10;;;;;;;;;;4992971;28;20058;-70
2022/01/29 10:14:02;;;;;;;4.70;2.00;;;;;;;;;;4992842;28;20056;-70
2022/01/29 10:16:31;;;;;;;5.80;2.00;;;;;;;;;;4992715;28;20056;-70
2022/01/29 10:19:04;;;;;;;3.97;2.00;;;;;;;;;;4992684;28;20054;-70
2022/01/29 10:21:34;;;;;;;5.18;2.22;;;;;;;;;;4992903;28;20057;-70
2022/01/29 10:24:04;;;;;;;4.57;1.73;;;;;;;;;;4992981;28;20416;-70
2022/01/29 10:26:34;;;;;;;5.45;2.08;;;;;;;;;;4992542;28;20098;-71
2022/01/29 10:29:02;;;;;;;6.03;1.60;;;;;;;;;;4992515;28;20046;-70
2022/01/29 10:31:40;;;;;;;4.30;1.60;;;;;;;;;;4993068;28;20423;-70
2022/01/29 10:34:16;;;;;;;3.60;1.65;;;;;;;;;;4992767;28;20053;-70
2022/01/29 10:36:45;;;;;;;3.50;1.50;;;;;;;;;;4992733;28;20054;-70
2022/01/29 10:39:12;;;;;;;4.32;1.30;;;;;;;;;;4992522;28;20057;-70
2022/01/29 10:41:39;;;;;;;3.63;1.45;;;;;;;;;;4993163;28;20399;-70
2022/01/29 10:44:13;;;;;;;3.22;1.40;;;;;;;;;;4992470;28;20055;-71
2022/01/29 10:46:49;;;;;;;5.65;1.48;;;;;;;;;;4992724;28;20418;-70
2022/01/29 10:49:19;;;;;;;2.92;1.42;;;;;;;;;;4992413;28;20058;-70
2022/01/29 10:52:03;;;;;;;2.80;1.30;;;;;;;;;;4992426;28;20101;-70
2022/01/29 10:54:31;;;;;;;3.55;1.20;;;;;;;;;;4992600;28;20484;-70
2022/01/29 10:57:00;;;;;;;3.53;1.30;;;;;;;;;;4992495;28;20050;-71
2022/01/29 10:59:29;;;;;;;3.15;1.05;;;;;;;;;;4992454;28;20050;-70
2022/01/29 11:01:58;;;;;;;2.70;1.13;;;;;;;;;;4992628;28;20119;-70
2022/01/29 11:04:28;;;;;;;3.03;1.00;;;;;;;;;;4992401;28;20058;-69
2022/01/29 11:06:58;;;;;;;3.67;1.20;;;;;;;;;;4996390;28;20072;-69
2022/01/29 11:09:28;;;;;;;2.30;0.80;;;;;;;;;;4996599;28;20276;-69
2022/01/29 11:11:57;;;;;;;4.25;1.08;;;;;;;;;;4997114;28;20061;-69
2022/01/29 11:14:25;;;;;;;3.05;1.17;;;;;;;;;;4996909;28;20392;-70
2022/01/29 11:16:53;;;;;;;3.00;1.38;;;;;;;;;;4996709;28;20422;-69
2022/01/29 11:19:20;;;;;;;1.67;1.05;;;;;;;;;;4996469;28;20051;-68
2022/01/29 11:21:51;;;;;;;3.85;1.15;;;;;;;;;;4996878;28;20085;-69
2022/01/29 11:24:18;;;;;;;;;;;;;;;;;;4997204;28;20376;-69
2022/01/29 11:26:47;;;;;;;4.40;1.10;;;;;;;;;;4996455;28;20379;-69
2022/01/29 11:29:31;;;;;;;3.58;1.00;;;;;;;;;;4996329;28;20134;-69
2022/01/29 11:32:32;;;;;;;2.60;1.20;;;;;;;;;;4996086;28;20057;-69
2022/01/29 11:35:09;;;;;;;;;;;;;;;;;;4996438;28;20169;-69
2022/01/29 11:37:38;;;;;;;2.90;1.10;;;;;;;;;;4995556;28;20442;-69
2022/01/29 11:40:25;;;;;;;2.72;1.10;;;;;;;;;;4995823;28;20057;-70
2022/01/29 11:43:06;;;;;;;6.22;1.88;;;;;;;;;;4996200;28;20051;-69
2022/01/29 11:45:44;;;;;;;3.55;1.08;;;;;;;;;;4995893;28;20495;-69
2022/01/29 11:49:00;;;;;;;9.02;1.90;;;;;;;;;;4995225;28;20141;-69
2022/01/29 11:51:43;;;;;;;2.22;1.02;;;;;;;;;;4995632;28;20479;-69
2022/01/29 11:54:11;;;;;;;2.22;1.00;;;;;;;;;;4995307;28;20133;-69
2022/01/29 11:56:40;;;;;;;2.75;1.15;;;;;;;;;;4995273;28;20050;-70
2022/01/29 11:59:31;;;;;;;2.38;1.20;;;;;;;;;;4995091;28;20050;-70
2022/01/29 12:01:59;;;;;;;;;;;;;;;;;;4996055;28;20050;-69
2022/01/29 12:05:07;;;;;;;4.10;1.15;;;;;;;;;;4995559;28;20064;-69
2022/01/29 12:07:39;;;;;;;2.38;1.00;;;;;;;;;;4995089;28;20054;-69
2022/01/29 12:10:10;;;;;;;3.05;1.05;;;;;;;;;;4995428;28;20051;-70
2022/01/29 12:12:36;;;;;;;;;;;;;;;;;;4996044;28;20129;-69
2022/01/29 12:15:38;;;;;;;1.83;1.02;;;;;;;;;;4995096;28;19938;-70
2022/01/29 12:18:25;;;;;;;2.38;1.20;;;;;;;;;;4933692;29;20055;-70
2022/01/29 12:20:52;;;;;;;2.95;1.05;;;;;;;;;;4934940;29;20051;-69
2022/01/29 12:23:20;;;;;;;1.75;0.90;;;;;;;;;;4970730;28;20054;-69
2022/01/29 12:25:54;;;;;;;2.97;1.20;;;;;;;;;;4995325;28;20527;-69
2022/01/29 12:28:21;;;;;;;2.85;1.27;;;;;;;;;;4995081;28;20046;-69
2022/01/29 12:30:50;;;;;;;3.15;1.10;;;;;;;;;;4994925;28;20054;-69
2022/01/29 12:33:19;;;;;;;2.55;1.10;;;;;;;;;;4994778;28;20058;-69
2022/01/29 12:35:50;;;;;;;2.60;1.10;;;;;;;;;;4991850;28;20050;-70
2022/01/29 12:38:19;;;;;;;2.90;1.25;;;;;;;;;;4992029;28;20075;-69
2022/01/29 12:40:55;;;;;;;3.65;1.17;;;;;;;;;;4992959;28;20384;-69
2022/01/29 12:43:26;;;;;;;3.53;1.40;;;;;;;;;;4993206;28;20050;-71
2022/01/29 12:45:55;;;;;;;4.55;1.40;;;;;;;;;;4992827;28;20054;-69
2022/01/29 12:48:23;;;;;;;2.13;1.02;;;;;;;;;;4992365;28;20458;-69
2022/01/29 12:50:50;;;;;;;3.35;1.30;;;;;;;;;;4992450;28;20054;-69
2022/01/29 12:53:19;;;;;;;4.25;1.40;;;;;;;;;;4992850;28;20050;-70
2022/01/29 12:56:00;;;;;;;3.40;1.30;;;;;;;;;;4992759;28;20389;-69
2022/01/29 12:58:32;;;;;;;2.70;1.42;;;;;;;;;;4992592;28;20051;-69
2022/01/29 13:01:07;;;;;;;3.75;1.35;;;;;;;;;;4992310;28;20531;-69
2022/01/29 13:03:37;;;;;;;2.67;1.30;;;;;;;;;;4992383;28;20411;-69
2022/01/29 13:06:07;;;;;;;2.78;1.30;;;;;;;;;;4992546;28;20121;-70
2022/01/29 13:08:34;;;;;;;3.80;1.40;;;;;;;;;;4992785;28;20400;-70
2022/01/29 13:11:01;;;;;;;4.63;1.80;;;;;;;;;;4992417;28;20280;-69
2022/01/29 13:13:29;;;;;;;4.78;1.58;;;;;;;;;;4991909;28;20054;-69
2022/01/29 13:15:56;;;;;;;4.25;1.52;;;;;;;;;;4992236;28;20504;-69
2022/01/29 13:18:25;;;;;;;5.05;1.90;;;;;;;;;;4992090;28;20411;-69
2022/01/29 13:20:54;;;;;;;5.13;1.63;;;;;;;;;;4992139;28;20496;-69
2022/01/29 13:23:21;;;;;;;5.43;1.70;;;;;;;;;;4991893;28;20051;-69
2022/01/29 13:25:48;;;;;;;3.97;1.67;;;;;;;;;;4992080;28;20061;-70
2022/01/29 13:28:18;;;;;;;4.32;1.77;;;;;;;;;;4991311;28;20661;-70
2022/01/29 13:30:45;;;;;;;2.58;1.35;;;;;;;;;;4991784;28;20050;-69
2022/01/29 13:33:18;;;;;;;4.15;1.45;;;;;;;;;;4991539;28;20054;-70
2022/01/29 13:35:48;;;;;;;2.80;1.13;;;;;;;;;;4992037;28;20052;-69
2022/01/29 13:38:25;;;;;;;4.40;1.40;;;;;;;;;;4991371;28;20047;-69
2022/01/29 13:40:54;;;;;;;4.15;1.50;;;;;;;;;;4991729;28;20064;-68
2022/01/29 13:43:40;;;;;;;3.72;1.50;;;;;;;;;;4991690;28;20093;-70
2022/01/29 13:46:09;;;;;;;2.88;1.30;;;;;;;;;;4991700;28;20046;-69
2022/01/29 13:48:50;;;;;;;4.15;1.60;;;;;;;;;;4991250;28;20557;-70
2022/01/29 13:51:31;;;;;;;4.85;1.45;;;;;;;;;;4991986;28;20054;-70
2022/01/29 13:53:59;;;;;;;4.60;1.60;;;;;;;;;;4991746;28;20046;-69
2022/01/29 13:56:28;;;;;;;3.97;1.75;;;;;;;;;;4990239;28;20064;-70
2022/01/29 13:58:57;;;;;;;4.00;1.65;;;;;;;;;;4991133;28;20054;-70
2022/01/29 14:01:38;;;;;;;4.22;1.67;;;;;;;;;;4991296;28;20105;-68
2022/01/29 14:04:05;;;;;;;;;;;;;;;;;;4991948;28;20145;-68
2022/01/29 14:06:38;;;;;;;4.13;1.60;;;;;;;;;;4991376;28;20331;-69
2022/01/29 14:09:16;;;;;;;3.58;1.65;;;;;;;;;;4991353;28;20065;-70
2022/01/29 14:12:10;;;;;;;3.58;1.45;;;;;;;;;;4991203;28;20060;-69
2022/01/29 14:14:40;;;;;;;6.35;2.40;;;;;;;;;;4991312;28;20134;-69
2022/01/29 14:17:09;;;;;;;4.93;1.98;;;;;;;;;;4991007;28;20085;-69
2022/01/29 14:19:37;;;;;;;5.55;2.70;;;;;;;;;;4991143;28;20054;-69
2022/01/29 14:22:07;;;;;;;6.15;2.20;;;;;;;;;;4991086;28;20115;-69
2022/01/29 14:24:35;;;;;;;4.60;1.87;;;;;;;;;;4990778;28;20050;-69
2022/01/29 14:27:02;;;;;;;5.65;2.60;;;;;;;;;;4990820;28;20054;-69
2022/01/29 14:29:30;;;;;;;3.85;1.70;;;;;;;;;;4991176;28;20054;-69
2022/01/29 14:31:58;;;;;;;3.55;1.45;;;;;;;;;;4991084;28;20074;-69
2022/01/29 14:34:25;;;;;;;4.75;2.13;;;;;;;;;;4990710;28;20507;-69
2022/01/29 14:36:55;;;;;;;6.30;2.08;;;;;;;;;;4990599;28;20102;-69
2022/01/29 14:39:24;;;;;;;6.28;2.25;;;;;;;;;;4990444;28;20090;-69
2022/01/29 14:41:52;;;;;;;5.38;2.47;;;;;;;;;;4990700;28;20050;-70
2022/01/29 14:44:19;;;;;;;5.30;2.10;;;;;;;;;;4990667;28;20097;-70
2022/01/29 14:46:46;;;;;;;5.25;2.13;;;;;;;;;;4991006;28;20419;-70
2022/01/29 14:49:13;;;;;;;4.30;2.00;;;;;;;;;;4990464;28;20105;-70
2022/01/29 14:51:44;;;;;;;5.45;2.40;;;;;;;;;;5002140;23;20072;-58
2022/01/29 14:54:11;;;;;;;6.57;2.20;;;;;;;;;;4990861;28;20413;-57
2022/01/29 14:56:42;;;;;;;4.85;2.13;;;;;;;;;;4990662;28;20284;-58
2022/01/29 14:59:09;;;;;;;4.90;1.98;;;;;;;;;;4990843;28;20050;-58
2022/01/29 15:01:36;;;;;;;4.43;1.98;;;;;;;;;;4990656;28;20550;-59
2022/01/29 15:04:03;;;;;;;5.60;2.10;;;;;;;;;;4991123;28;20054;-58